Time;durP1;ratioP1;P1;durP2;ratioP2;P2;SDS_P1;SDS_P2;PMS_P1;PMS_P2;Temp;Humidity;BMP_temperature;BMP_pressure;BME280_temperature;BME280_humidity;BME280_pressure;Samples;Min_cycle;Max_cycle;Signal;HPM_P1;HPM_P2
2022/06/21 00:01:48;;;;;;;10.52;6.15;;;;;;;25.39;64.07;99549.38;6213110;23;20050;-71
2022/06/21 00:04:14;;;;;;;12.00;6.93;;;;;;;25.35;64.25;99540.81;6213061;23;20004;-71
2022/06/21 00:06:39;;;;;;;13.93;7.90;;;;;;;25.32;64.62;99541.31;6212829;23;20442;-71
2022/06/21 00:09:05;;;;;;;7.70;6.38;;;;;;;25.30;64.81;99535.19;6212864;23;20008;-71
2022/06/21 00:11:34;;;;;;;9.38;6.00;;;;;;;25.20;65.07;99524.06;6212595;23;20039;-71
2022/06/21 00:14:00;;;;;;;9.98;6.53;;;;;;;25.22;65.29;99538.38;6212605;23;20027;-71
2022/06/21 00:16:30;;;;;;;11.07;6.70;;;;;;;25.20;65.74;99557.00;6212601;23;20029;-71
2022/06/21 00:18:56;;;;;;;10.25;6.95;;;;;;;25.15;66.13;99553.31;6212621;23;20012;-71
2022/06/21 00:21:25;;;;;;;8.55;6.40;;;;;;;25.12;66.23;99545.59;6185887;23;20011;-70
2022/06/21 00:23:52;;;;;;;10.45;7.20;;;;;;;25.08;66.51;99528.75;6212389;23;20013;-71
2022/06/21 00:26:20;;;;;;;9.93;6.72;;;;;;;25.07;66.59;99523.53;6212470;23;20495;-71
2022/06/21 00:28:45;;;;;;;7.28;6.25;;;;;;;25.12;66.73;99529.94;6212339;23;20004;-71
2022/06/21 00:31:18;;;;;;;8.20;6.60;;;;;;;25.10;66.64;99517.53;6212342;23;20082;-72
2022/06/21 00:33:44;;;;;;;10.57;7.10;;;;;;;25.05;66.79;99517.47;6212101;23;20004;-71
2022/06/21 00:36:37;;;;;;;7.82;5.85;;;;;;;25.06;66.47;99538.34;6212508;23;20032;-71
2022/06/21 00:39:04;;;;;;;10.18;6.95;;;;;;;25.04;66.57;99530.34;6207284;23;20059;-71
2022/06/21 00:41:32;;;;;;;6.90;6.20;;;;;;;25.01;66.48;99535.47;6212388;23;20079;-71
2022/06/21 00:44:02;;;;;;;7.88;6.60;;;;;;;25.01;66.53;99536.31;6212401;23;20042;-71
2022/06/21 00:46:54;;;;;;;10.25;6.68;;;;;;;24.95;67.00;99541.97;6212188;23;20000;-71
2022/06/21 00:49:29;;;;;;;8.35;6.15;;;;;;;24.92;66.86;99531.50;6207584;23;20018;-71
2022/06/21 00:52:13;;;;;;;7.65;5.82;;;;;;;24.90;67.18;99533.63;6212321;23;20083;-71
2022/06/21 00:55:01;;;;;;;8.10;6.53;;;;;;;24.86;67.47;99536.03;6212073;23;20013;-71
2022/06/21 00:57:36;;;;;;;9.73;7.03;;;;;;;24.86;67.90;99551.69;6212558;23;20009;-71
2022/06/21 01:00:23;;;;;;;8.48;6.60;;;;;;;24.86;67.81;99551.69;6212800;23;20088;-71
2022/06/21 01:02:48;;;;;;;9.85;6.93;;;;;;;24.83;68.02;99550.28;6212666;23;20429;-71
2022/06/21 01:05:14;;;;;;;12.68;7.30;;;;;;;24.79;68.29;99553.75;6212361;23;20008;-71
2022/06/21 01:07:41;;;;;;;7.22;5.85;;;;;;;24.75;68.50;99558.03;6212299;23;20476;-71
2022/06/21 01:10:13;;;;;;;11.95;6.68;;;;;;;24.76;68.23;99543.25;6212225;23;20366;-71
2022/06/21 01:12:47;;;;;;;9.80;6.72;;;;;;;24.75;67.95;99547.06;6185387;23;20091;-71
2022/06/21 01:15:16;;;;;;;;;;;;;;;24.75;67.71;99552.53;6212478;23;20424;-71
2022/06/21 01:17:41;;;;;;;9.20;6.55;;;;;;;24.65;67.99;99558.66;6212010;23;19904;-71
2022/06/21 01:20:11;;;;;;;12.23;6.15;;;;;;;24.62;67.89;99547.31;6212112;23;20059;-71
2022/06/21 01:22:54;;;;;;;8.00;5.75;;;;;;;24.59;67.95;99534.94;6212011;23;20429;-71
2022/06/21 01:25:33;;;;;;;17.40;5.70;;;;;;;24.69;67.22;99537.09;6211511;23;20017;-71
2022/06/21 01:27:59;;;;;;;10.55;5.00;;;;;;;24.65;67.11;99531.25;6212086;23;20009;-71
2022/06/21 01:30:27;;;;;;;10.32;5.50;;;;;;;24.60;66.94;99522.06;6185212;23;20039;-71
2022/06/21 01:32:55;;;;;;;8.35;5.35;;;;;;;24.58;66.94;99529.69;6211961;23;20000;-71
2022/06/21 01:35:28;;;;;;;10.50;5.70;;;;;;;24.62;66.77;99539.94;6211714;23;20012;-72
2022/06/21 01:37:55;;;;;;;10.77;5.43;;;;;;;24.63;66.89;99549.00;6211928;23;20295;-71
2022/06/21 01:40:26;;;;;;;7.50;4.95;;;;;;;24.58;66.90;99543.41;6211308;23;20011;-71
2022/06/21 01:42:56;;;;;;;7.72;5.18;;;;;;;24.60;66.86;99554.97;6211532;23;20000;-71
2022/06/21 01:45:27;;;;;;;6.85;5.03;;;;;;;24.60;66.70;99549.47;6211088;23;20012;-71
2022/06/21 01:48:11;;;;;;;7.65;4.38;;;;;;;24.58;66.65;99546.13;6211314;23;20008;-71
2022/06/21 01:50:38;;;;;;;9.43;5.20;;;;;;;24.53;66.99;99557.03;6211293;23;20012;-71
2022/06/21 01:53:04;;;;;;;13.13;5.55;;;;;;;24.57;66.97;99558.19;6211440;23;20031;-72
2022/06/21 01:55:39;;;;;;;11.43;5.57;;;;;;;24.54;67.03;99565.00;6211458;23;20039;-72
2022/06/21 01:58:08;;;;;;;15.82;5.38;;;;;;;24.54;67.20;99553.19;6184921;23;20004;-71
2022/06/21 02:00:37;;;;;;;10.68;5.28;;;;;;;24.48;67.69;99556.91;6211482;23;20519;-71
2022/06/21 02:03:09;;;;;;;10.50;5.30;;;;;;;24.35;67.68;99550.59;6211083;23;20011;-71
2022/06/21 02:05:40;;;;;;;14.23;4.60;;;;;;;24.41;66.76;99568.03;6211360;23;20008;-71
2022/06/21 02:08:10;;;;;;;10.88;4.47;;;;;;;24.41;65.32;99579.81;6211271;23;20345;-72
2022/06/21 02:10:41;;;;;;;13.38;5.10;;;;;;;24.42;63.49;99591.59;6211143;23;20004;-71
2022/06/21 02:13:19;;;;;;;11.25;4.10;;;;;;;24.31;63.30;99590.56;6211099;23;20011;-71
2022/06/21 02:15:52;;;;;;;12.00;3.78;;;;;;;24.29;62.06;99589.13;6184397;23;20015;-72
2022/06/21 02:18:21;;;;;;;8.57;3.92;;;;;;;24.29;61.30;99591.88;6211258;23;20005;-71
2022/06/21 02:20:55;;;;;;;13.27;3.45;;;;;;;24.18;61.58;99596.28;6210979;23;20464;-71
2022/06/21 02:23:22;;;;;;;9.10;3.42;;;;;;;24.27;60.95;99602.22;6211140;23;20004;-71
2022/06/21 02:25:50;;;;;;;12.32;4.32;;;;;;;24.16;60.90;99592.13;6211096;23;20385;-71
2022/06/21 02:28:19;;;;;;;14.93;4.25;;;;;;;24.16;61.57;99592.97;6211129;23;20012;-71
2022/06/21 02:30:45;;;;;;;12.98;4.03;;;;;;;24.11;61.79;99600.22;6211174;23;20012;-71
2022/06/21 02:33:18;;;;;;;9.32;3.30;;;;;;;24.09;62.17;99594.97;6210992;23;20032;-71
2022/06/21 02:35:51;;;;;;;6.03;3.60;;;;;;;24.06;62.19;99600.94;6210459;23;20028;-72
2022/06/21 02:38:22;;;;;;;10.15;3.58;;;;;;;24.04;62.39;99605.84;6210727;23;20377;-71
2022/06/21 02:40:55;;;;;;;6.28;3.65;;;;;;;23.97;62.12;99593.31;6210691;23;20004;-71
2022/06/21 02:43:36;;;;;;;10.27;3.38;;;;;;;24.03;62.22;99615.13;6183944;23;20007;-71
2022/06/21 02:46:09;;;;;;;7.30;3.58;;;;;;;24.03;61.53;99598.69;6184389;23;20025;-71
2022/06/21 02:48:42;;;;;;;8.02;3.97;;;;;;;23.98;61.80;99616.91;6210915;23;20008;-71
2022/06/21 02:51:19;;;;;;;10.80;4.03;;;;;;;23.95;62.26;99617.38;6210803;23;20012;-71
2022/06/21 02:54:07;;;;;;;8.85;3.70;;;;;;;23.95;61.90;99615.47;6210895;23;20082;-71
2022/06/21 02:56:41;;;;;;;15.32;3.40;;;;;;;23.88;61.89;99619.38;6211095;23;20062;-71
2022/06/21 02:59:09;;;;;;;8.48;3.25;;;;;;;23.85;61.84;99612.47;6211400;23;20011;-71
2022/06/21 03:01:39;;;;;;;6.03;3.17;;;;;;;23.85;61.62;99617.94;6210960;23;20461;-71
2022/06/21 03:04:11;;;;;;;6.70;2.92;;;;;;;23.79;61.43;99621.63;6210719;23;20008;-72
2022/06/21 03:06:36;;;;;;;7.53;3.50;;;;;;;23.73;61.28;99617.09;6210997;23;20084;-72
2022/06/21 03:09:09;;;;;;;7.80;2.80;;;;;;;23.73;61.46;99616.28;6211144;23;20390;-72
2022/06/21 03:11:41;;;;;;;6.18;3.30;;;;;;;23.70;61.30;99631.25;6210579;23;20001;-68
2022/06/21 03:14:11;;;;;;;7.72;3.33;;;;;;;23.74;60.89;99632.47;6211127;23;20410;-69
2022/06/21 03:16:38;;;;;;;5.93;3.70;;;;;;;23.71;60.94;99640.31;6184080;23;20019;-68
2022/06/21 03:19:14;;;;;;;5.70;2.65;;;;;;;23.74;60.59;99640.69;6210901;23;20000;-71
2022/06/21 03:21:40;;;;;;;5.18;2.95;;;;;;;23.70;60.77;99633.19;6211184;23;20093;-75
2022/06/21 03:24:12;;;;;;;5.40;2.83;;;;;;;23.79;60.46;99651.75;6185222;23;20623;-75
2022/06/21 03:26:40;;;;;;;8.23;2.80;;;;;;;23.77;60.75;99653.06;6185345;23;20047;-75
2022/06/21 03:29:07;;;;;;;6.10;2.67;;;;;;;23.87;60.33;99675.22;6211992;23;20000;-75
2022/06/21 03:31:40;;;;;;;9.10;2.90;;;;;;;23.90;59.85;99680.25;6211890;23;20036;-75
2022/06/21 03:34:09;;;;;;;3.63;2.60;;;;;;;24.00;59.38;99695.06;6211892;23;20011;-75
2022/06/21 03:36:35;;;;;;;11.23;3.10;;;;;;;24.06;59.05;99680.41;6211595;23;20009;-74
2022/06/21 03:39:07;;;;;;;7.22;3.35;;;;;;;24.04;58.38;99660.63;6185335;23;20346;-74
2022/06/21 03:41:43;;;;;;;8.13;3.00;;;;;;;24.27;57.85;99677.09;6212109;23;20035;-73
2022/06/21 03:44:31;;;;;;;4.20;2.70;;;;;;;24.45;57.39;99687.09;6210789;23;20418;-66
2022/06/21 03:47:19;;;;;;;8.05;3.08;;;;;;;24.53;56.72;99699.63;6177710;23;20035;-70
2022/06/21 03:50:03;;;;;;;6.78;3.03;;;;;;;24.53;56.51;99696.88;6209884;23;20012;-71
2022/06/21 03:52:54;;;;;;;5.20;3.22;;;;;;;24.65;56.27;99692.22;6212568;23;20402;-71
2022/06/21 03:55:40;;;;;;;5.82;3.00;;;;;;;24.72;55.86;99701.16;6180925;23;20025;-71
2022/06/21 03:58:21;;;;;;;5.90;2.97;;;;;;;24.78;55.62;99711.16;6182695;23;20019;-71
2022/06/21 04:01:00;;;;;;;9.75;2.88;;;;;;;24.76;55.44;99707.84;6182072;23;20013;-72
2022/06/21 04:03:50;;;;;;;6.10;3.03;;;;;;;24.71;55.59;99721.44;6180950;23;20055;-72
2022/06/21 04:06:29;;;;;;;5.63;3.22;;;;;;;24.69;55.57;99715.38;6182625;23;20009;-72
2022/06/21 04:09:05;;;;;;;4.45;2.92;;;;;;;24.65;55.82;99728.72;6182410;23;20009;-72
2022/06/21 04:11:42;;;;;;;5.93;3.03;;;;;;;24.59;56.07;99726.06;6182355;23;20507;-73
2022/06/21 04:14:20;;;;;;;8.43;3.33;;;;;;;24.53;56.10;99740.75;6182452;23;20563;-72
2022/06/21 04:16:56;;;;;;;5.18;3.15;;;;;;;24.54;56.16;99745.16;6180085;23;20005;-72
2022/06/21 04:19:37;;;;;;;7.40;3.40;;;;;;;24.51;56.17;99734.66;6182108;23;20346;-72
2022/06/21 04:22:08;;;;;;;7.90;3.17;;;;;;;24.52;55.15;99737.16;6182346;23;20004;-66
2022/06/21 04:24:51;;;;;;;6.90;3.17;;;;;;;24.57;53.82;99748.25;6182089;23;20099;-65
2022/06/21 04:27:33;;;;;;;6.18;3.08;;;;;;;24.64;54.25;99734.44;6182017;23;20076;-65
2022/06/21 04:30:17;;;;;;;5.65;3.28;;;;;;;24.72;53.74;99739.56;6182184;23;20450;-65
2022/06/21 04:32:51;;;;;;;10.55;3.22;;;;;;;24.81;53.61;99743.59;6181887;23;20001;-65
2022/06/21 04:35:27;;;;;;;;;;;;;;;24.92;53.25;99748.25;6182402;23;20005;-65
2022/06/21 04:38:00;;;;;;;8.52;3.40;;;;;;;24.95;52.70;99750.53;6181864;23;20026;-65
2022/06/21 04:40:34;;;;;;;6.53;3.30;;;;;;;25.11;52.18;99758.00;6181853;23;20280;-65
2022/06/21 04:43:18;;;;;;;7.97;3.25;;;;;;;25.11;52.10;99750.59;6182256;23;20040;-65
2022/06/21 04:46:24;;;;;;;5.50;3.17;;;;;;;25.28;51.78;99758.91;6181642;23;20005;-65
2022/06/21 04:49:37;;;;;;;8.10;3.38;;;;;;;25.34;51.28;99764.28;6181740;23;20095;-65
2022/06/21 04:52:03;;;;;;;8.05;3.00;;;;;;;25.33;51.09;99761.78;6076120;23;20392;-65
2022/06/21 04:54:32;;;;;;;12.60;3.63;;;;;;;25.35;51.23;99773.38;6180262;23;20021;-66
2022/06/21 04:57:09;;;;;;;16.90;3.65;;;;;;;25.38;51.15;99765.50;6181944;23;20446;-65
2022/06/21 04:59:45;;;;;;;7.03;3.10;;;;;;;25.44;51.03;99774.66;6181562;23;20346;-65
2022/06/21 05:02:26;;;;;;;5.40;2.70;;;;;;;25.55;50.88;99777.38;6181385;23;20001;-66
2022/06/21 05:04:59;;;;;;;8.00;3.10;;;;;;;25.57;50.79;99772.44;6179922;23;20008;-66
2022/06/21 05:07:29;;;;;;;7.55;3.20;;;;;;;25.58;50.67;99779.63;6181127;23;20013;-65
2022/06/21 05:09:56;;;;;;;3.92;2.70;;;;;;;25.68;50.42;99773.47;6181119;23;20005;-66
2022/06/21 05:12:31;;;;;;;7.45;3.20;;;;;;;25.71;50.42;99795.81;6180725;23;20033;-69
2022/06/21 05:15:03;;;;;;;11.38;3.40;;;;;;;25.83;50.24;99793.03;6179319;23;20017;-72
2022/06/21 05:17:31;;;;;;;8.05;3.17;;;;;;;25.92;49.64;99794.31;6180028;23;20367;-72
2022/06/21 05:20:00;;;;;;;11.25;3.22;;;;;;;26.12;48.92;99795.50;6179493;23;20346;-72
2022/06/21 05:22:30;;;;;;;6.25;3.20;;;;;;;26.06;48.40;99787.44;6180270;23;20005;-72
2022/06/21 05:24:58;;;;;;;14.90;3.33;;;;;;;26.16;47.55;99832.44;6180250;23;20346;-72
2022/06/21 05:27:44;;;;;;;20.38;4.38;;;;;;;25.87;47.68;99827.16;6181272;23;20016;-73
2022/06/21 05:30:47;;;;;;;10.55;3.20;;;;;;;25.83;47.38;99821.31;6181034;23;20392;-72
2022/06/21 05:33:21;;;;;;;4.72;2.17;;;;;;;25.90;47.38;99822.03;6104076;23;20009;-72
2022/06/21 05:35:47;;;;;;;;;;;;;;;25.99;45.89;99826.06;6181474;23;20001;-73
2022/06/21 05:38:21;;;;;;;9.18;2.78;;;;;;;25.96;46.05;99820.19;6181184;23;19904;-72
2022/06/21 05:40:57;;;;;;;15.93;2.75;;;;;;;25.83;44.82;99824.06;6181095;23;20023;-72
2022/06/21 05:43:42;;;;;;;8.48;2.33;;;;;;;25.91;44.81;99826.44;6180834;23;20009;-72
2022/06/21 05:46:17;;;;;;;6.13;2.17;;;;;;;25.93;44.33;99827.00;6180679;23;20452;-72
2022/06/21 05:48:43;;;;;;;9.27;2.63;;;;;;;25.99;44.04;99836.25;6180691;23;20028;-73
2022/06/21 05:51:23;;;;;;;13.10;2.70;;;;;;;25.78;44.48;99825.88;6180745;23;20101;-72
2022/06/21 05:54:14;;;;;;;9.40;2.70;;;;;;;25.71;44.56;99833.44;6185576;23;20399;-72
2022/06/21 05:56:40;;;;;;;7.22;2.30;;;;;;;25.77;44.43;99832.47;6183975;23;20012;-72
2022/06/21 05:59:19;;;;;;;5.68;2.35;;;;;;;25.89;44.33;99825.84;6211050;23;20024;-72
2022/06/21 06:01:47;;;;;;;5.05;2.55;;;;;;;25.94;43.23;99822.34;6210872;23;20437;-72
2022/06/21 06:04:31;;;;;;;13.10;2.45;;;;;;;26.07;43.18;99833.06;6211295;23;20004;-73
2022/06/21 06:06:59;;;;;;;10.80;2.53;;;;;;;25.95;42.84;99821.25;6210485;23;20050;-72
2022/06/21 06:09:34;;;;;;;11.80;2.70;;;;;;;25.87;42.66;99816.19;6210671;23;20011;-72
2022/06/21 06:12:05;;;;;;;8.48;2.15;;;;;;;25.86;42.30;99829.06;6210179;23;20007;-72
2022/06/21 06:14:45;;;;;;;7.32;2.10;;;;;;;25.94;42.24;99828.69;6210784;23;20012;-73
2022/06/21 06:17:20;;;;;;;5.75;2.10;;;;;;;25.96;42.40;99811.97;6210287;23;20452;-72
2022/06/21 06:20:16;;;;;;;10.27;2.30;;;;;;;26.04;41.28;99825.31;6210391;23;20338;-72
2022/06/21 06:22:48;;;;;;;7.82;2.55;;;;;;;26.20;41.03;99838.28;6194168;23;20035;-72
2022/06/21 06:25:25;;;;;;;11.20;2.72;;;;;;;26.21;40.61;99842.69;6210531;23;20342;-72
2022/06/21 06:27:56;;;;;;;13.30;2.00;;;;;;;26.06;40.33;99856.16;6210576;23;20506;-72
2022/06/21 06:30:31;;;;;;;10.60;2.25;;;;;;;25.92;40.28;99852.81;6210466;23;20013;-72
2022/06/21 06:33:19;;;;;;;7.78;1.92;;;;;;;26.08;40.20;99859.47;6210771;23;20004;-72
2022/06/21 06:35:47;;;;;;;10.82;2.20;;;;;;;26.01;40.14;99842.31;6191716;23;20008;-72
2022/06/21 06:38:14;;;;;;;11.02;2.25;;;;;;;26.17;39.84;99847.00;6210729;23;20001;-72
2022/06/21 06:40:45;;;;;;;4.63;2.00;;;;;;;26.32;39.57;99852.81;6184100;23;20669;-72
2022/06/21 06:43:27;;;;;;;5.65;1.30;;;;;;;26.66;38.97;99854.50;6210859;23;20495;-72
2022/06/21 06:45:57;;;;;;;2.80;1.42;;;;;;;26.53;38.97;99860.31;6210871;23;20008;-72
2022/06/21 06:48:29;;;;;;;12.93;2.10;;;;;;;26.51;38.84;99860.56;6210802;23;20014;-72
2022/06/21 06:50:59;;;;;;;5.50;1.60;;;;;;;26.60;39.04;99863.75;6210869;23;20036;-72
2022/06/21 06:53:33;;;;;;;4.40;1.67;;;;;;;26.63;38.97;99868.78;6210667;23;20485;-71
2022/06/21 06:56:09;;;;;;;5.38;1.70;;;;;;;26.74;38.84;99873.38;6210973;23;20015;-72
2022/06/21 06:58:40;;;;;;;6.93;1.45;;;;;;;26.75;38.69;99863.19;6210945;23;20066;-71
2022/06/21 07:01:13;;;;;;;9.43;1.98;;;;;;;26.82;38.65;99847.38;6210634;23;20008;-72
2022/06/21 07:03:47;;;;;;;6.32;1.60;;;;;;;26.95;38.66;99847.84;6211185;23;20023;-72
2022/06/21 07:06:18;;;;;;;7.65;1.65;;;;;;;27.09;38.88;99849.16;6211533;23;20445;-72
2022/06/21 07:09:02;;;;;;;4.35;1.70;;;;;;;27.16;38.87;99840.72;6211181;23;20015;-72
2022/06/21 07:11:31;;;;;;;;;;;;;;;27.24;38.93;99859.59;6184518;23;20005;-71
2022/06/21 07:14:00;;;;;;;7.80;1.70;;;;;;;27.33;38.84;99861.66;6210657;23;19904;-71
2022/06/21 07:16:26;;;;;;;4.95;1.67;;;;;;;27.47;38.65;99862.94;6210721;23;20040;-72
2022/06/21 07:18:57;;;;;;;3.47;1.50;;;;;;;27.65;38.72;99856.28;6210600;23;20039;-71
2022/06/21 07:21:24;;;;;;;4.72;1.65;;;;;;;27.73;38.94;99866.88;6210676;23;20023;-71
2022/06/21 07:23:54;;;;;;;5.38;1.88;;;;;;;27.75;39.11;99871.03;6211250;23;20430;-72
2022/06/21 07:26:37;;;;;;;5.55;1.58;;;;;;;27.87;38.73;99869.03;6212838;23;20084;-72
2022/06/21 07:29:02;;;;;;;6.57;2.05;;;;;;;27.86;39.01;99861.81;6212888;23;20457;-71
2022/06/21 07:31:43;;;;;;;3.42;1.42;;;;;;;28.01;38.61;99869.44;6210821;23;20016;-72
2022/06/21 07:34:30;;;;;;;7.55;1.90;;;;;;;28.13;38.54;99868.22;6212681;23;20425;-72
2022/06/21 07:37:14;;;;;;;6.88;1.98;;;;;;;28.32;37.80;99886.09;6212591;23;20456;-72
2022/06/21 07:39:49;;;;;;;11.93;2.33;;;;;;;28.39;37.51;99874.81;6212818;23;20061;-72
2022/06/21 07:42:21;;;;;;;10.45;1.88;;;;;;;28.32;37.70;99888.00;6212598;23;20429;-71
2022/06/21 07:44:58;;;;;;;8.35;1.73;;;;;;;28.37;36.86;99888.88;6212512;23;20004;-72
2022/06/21 07:47:53;;;;;;;9.40;1.63;;;;;;;28.50;35.44;99896.75;6212477;23;20612;-72
2022/06/21 07:50:32;;;;;;;12.82;1.80;;;;;;;28.60;33.84;99885.00;6159090;23;20082;-72
2022/06/21 07:53:07;;;;;;;20.40;2.28;;;;;;;28.43;33.72;99901.63;6212409;23;20012;-72
2022/06/21 07:56:02;;;;;;;28.52;2.33;;;;;;;28.15;33.78;99901.88;6212184;23;20052;-72
2022/06/21 07:58:32;;;;;;;15.88;1.80;;;;;;;28.03;34.53;99900.34;6159180;23;20514;-72
2022/06/21 08:06:46;;;;;;;24.83;2.72;;;;;;;28.08;32.42;99903.19;6212329;23;20107;-72
2022/06/21 08:09:13;;;;;;;25.17;2.63;;;;;;;27.90;32.87;99917.28;6212633;23;20028;-72
2022/06/21 08:11:41;;;;;;;11.35;1.80;;;;;;;27.84;32.49;99905.34;6212276;23;20012;-72
2022/06/21 08:14:08;;;;;;;12.35;1.83;;;;;;;27.75;32.75;99898.59;6212086;23;20004;-72
2022/06/21 08:16:43;;;;;;;6.72;1.55;;;;;;;27.91;31.97;99897.72;6212347;23;20016;-72
2022/06/21 08:19:36;;;;;;;13.80;1.48;;;;;;;27.75;31.66;99915.13;6212673;23;20011;-72
2022/06/21 08:22:06;;;;;;;25.15;2.58;;;;;;;27.78;31.40;99908.28;6185798;23;20489;-72
2022/06/21 08:24:42;;;;;;;13.65;1.85;;;;;;;27.77;30.74;99904.69;6212244;23;20064;-72
2022/06/21 08:27:17;;;;;;;14.40;1.58;;;;;;;27.85;30.61;99918.06;6210800;23;20035;-72
2022/06/21 08:29:50;;;;;;;19.20;1.73;;;;;;;27.74;30.52;99909.88;6212242;23;20001;-71
2022/06/21 08:32:42;;;;;;;13.23;2.05;;;;;;;27.77;30.39;99907.47;6212039;23;20004;-72
2022/06/21 08:35:28;;;;;;;9.98;1.48;;;;;;;27.68;30.76;99883.34;6212159;23;20005;-72
2022/06/21 08:38:20;;;;;;;28.77;2.72;;;;;;;27.74;29.85;99923.66;6185610;23;20043;-72
2022/06/21 08:41:04;;;;;;;26.40;3.05;;;;;;;27.77;30.19;99929.50;6211925;23;20346;-72
2022/06/21 08:43:48;;;;;;;17.35;2.05;;;;;;;27.92;29.76;99928.91;6212074;23;20058;-72
2022/06/21 08:46:25;;;;;;;14.93;2.40;;;;;;;27.91;29.48;99932.72;6212171;23;20004;-71
2022/06/21 08:49:12;;;;;;;16.23;1.90;;;;;;;27.67;29.85;99925.78;6211973;23;20523;-72
2022/06/21 08:51:54;;;;;;;26.10;2.75;;;;;;;27.57;30.20;99929.22;6211800;23;20371;-71
2022/06/21 08:55:02;;;;;;;17.65;1.88;;;;;;;27.51;29.85;99924.75;6212021;23;20026;-71
2022/06/21 08:57:41;;;;;;;11.32;1.40;;;;;;;27.53;30.18;99917.03;6185479;23;20004;-71
2022/06/21 09:00:19;;;;;;;8.80;1.10;;;;;;;27.56;29.98;99921.19;6185364;23;20005;-71
2022/06/21 09:03:11;;;;;;;13.93;1.50;;;;;;;27.64;28.96;99929.88;6211996;23;20066;-71
2022/06/21 09:05:49;;;;;;;27.55;3.85;;;;;;;27.67;28.40;99937.66;6211807;23;20012;-71
2022/06/21 09:08:20;;;;;;;13.57;2.28;;;;;;;27.67;28.66;99932.13;6211717;23;20015;-71
2022/06/21 09:11:03;;;;;;;16.10;1.73;;;;;;;27.50;28.26;99945.09;6211600;23;20028;-71
2022/06/21 09:13:55;;;;;;;15.80;2.17;;;;;;;27.67;28.33;99931.28;6211523;23;20009;-71
2022/06/21 09:16:51;;;;;;;18.27;1.77;;;;;;;27.63;27.55;99928.19;6211420;23;20226;-71
2022/06/21 09:19:32;;;;;;;4.30;1.25;;;;;;;27.57;28.25;99928.41;6211680;23;20008;-70
2022/06/21 09:22:30;;;;;;;5.43;1.00;;;;;;;27.73;27.01;99942.13;6211634;23;20013;-71
2022/06/21 09:24:58;;;;;;;20.20;2.63;;;;;;;27.89;24.66;99924.72;6211546;23;20055;-71
2022/06/21 09:27:51;;;;;;;29.40;2.38;;;;;;;27.59;26.06;99938.06;6211492;23;20017;-71
2022/06/21 09:30:31;;;;;;;14.88;2.13;;;;;;;27.66;25.34;99927.69;6211509;23;19997;-71
2022/06/21 09:33:11;;;;;;;34.08;2.92;;;;;;;27.70;25.96;99944.56;6211274;23;20005;-71
2022/06/21 09:36:04;;;;;;;23.50;1.80;;;;;;;27.61;25.46;99932.31;6211441;23;20146;-71
2022/06/21 09:38:44;;;;;;;13.05;1.35;;;;;;;27.64;25.25;99956.59;6211328;23;20011;-71
2022/06/21 09:41:24;;;;;;;17.77;1.40;;;;;;;27.82;23.12;99945.28;6211438;23;20008;-72
2022/06/21 09:44:04;;;;;;;27.73;2.70;;;;;;;27.75;23.15;99944.63;6211274;23;20008;-71
2022/06/21 09:46:54;;;;;;;9.77;0.90;;;;;;;27.57;24.17;99934.72;6210922;23;20014;-71
2022/06/21 09:50:09;;;;;;;29.63;1.75;;;;;;;27.64;24.07;99943.66;6211637;23;20007;-72
2022/06/21 09:52:57;;;;;;;8.67;1.27;;;;;;;27.56;23.85;99940.47;6160136;23;20016;-71
2022/06/21 09:55:42;;;;;;;8.68;1.27;;;;;;;27.44;24.61;99937.84;6179618;23;20458;-72
2022/06/21 09:58:32;;;;;;;21.75;1.98;;;;;;;27.66;24.50;99938.72;6129225;23;20024;-71
2022/06/21 10:01:03;;;;;;;23.33;1.48;;;;;;;27.67;24.43;99939.56;6181270;23;20009;-71
2022/06/21 10:04:17;;;;;;;11.00;0.95;;;;;;;27.55;24.73;99936.06;6181391;23;20111;-72
2022/06/21 10:07:04;;;;;;;7.28;0.98;;;;;;;27.71;23.55;99919.50;6061196;23;20019;-71
2022/06/21 10:09:38;;;;;;;9.85;1.33;;;;;;;27.74;24.31;99929.19;6061557;23;20066;-72
2022/06/21 10:12:07;;;;;;;7.05;1.20;;;;;;;27.72;24.77;99923.06;6149226;23;20004;-71
2022/06/21 10:14:51;;;;;;;7.93;1.27;;;;;;;27.83;24.23;99930.41;6179308;23;20009;-71
2022/06/21 10:17:36;;;;;;;15.77;1.88;;;;;;;27.97;24.16;99928.97;6181348;23;20035;-71
2022/06/21 10:20:22;;;;;;;9.02;0.85;;;;;;;27.91;23.71;99927.22;6181098;23;20075;-71
2022/06/21 10:23:13;;;;;;;18.52;2.00;;;;;;;27.87;23.97;99924.16;6160296;23;20013;-71
2022/06/21 10:26:11;;;;;;;18.13;1.63;;;;;;;27.73;24.34;99922.81;6181087;23;20661;-71
2022/06/21 10:28:54;;;;;;;14.10;1.25;;;;;;;27.86;24.41;99932.69;6140145;23;20063;-71
2022/06/21 10:31:49;;;;;;;22.57;2.37;;;;;;;27.86;23.47;99939.00;6179376;23;20008;-71
2022/06/21 10:34:35;;;;;;;25.73;2.17;;;;;;;27.79;24.47;99930.06;6175015;23;20016;-71
2022/06/21 10:37:13;;;;;;;18.40;2.90;;;;;;;27.78;24.20;99935.84;6181185;23;20005;-71
2022/06/21 10:40:02;;;;;;;36.63;2.50;;;;;;;27.81;23.86;99929.81;6180926;23;20005;-71
2022/06/21 10:43:12;;;;;;;27.13;2.33;;;;;;;27.73;24.49;99944.88;6179321;23;20450;-72
2022/06/21 10:45:46;;;;;;;9.88;1.50;;;;;;;27.84;24.33;99921.03;6153423;23;20011;-71
2022/06/21 10:48:27;;;;;;;11.65;1.15;;;;;;;27.82;25.08;99935.06;6180958;23;20187;-72
2022/06/21 10:51:09;;;;;;;5.18;1.17;;;;;;;27.84;24.82;99934.81;6180998;23;20013;-71
2022/06/21 10:53:46;;;;;;;7.05;1.30;;;;;;;28.03;24.63;99928.78;6182834;23;20607;-71
2022/06/21 11:01:16;;;;;;;19.83;1.45;;;;;;;28.06;23.35;99930.19;6212507;23;20030;-71
2022/06/21 11:02:25;;;;;;;8.15;1.25;;;;;;;27.93;23.39;99922.28;6212716;23;20393;-71
2022/06/21 11:05:14;;;;;;;3.00;0.77;;;;;;;28.11;23.81;99933.81;6212881;23;20058;-71
2022/06/21 11:07:52;;;;;;;8.88;1.25;;;;;;;27.95;24.00;99933.91;6212887;23;20094;-71
2022/06/21 11:10:23;;;;;;;7.78;1.30;;;;;;;27.97;23.27;99929.81;6213055;23;20011;-71
2022/06/21 11:12:52;;;;;;;4.47;0.70;;;;;;;28.00;23.61;99923.78;6212864;23;20000;-71
2022/06/21 11:15:45;;;;;;;6.43;1.48;;;;;;;28.03;24.44;99930.69;6212927;23;20472;-71
2022/06/21 11:18:37;;;;;;;14.90;1.42;;;;;;;27.97;23.60;99928.97;6212882;23;20672;-72
2022/06/21 11:21:09;;;;;;;3.33;1.00;;;;;;;27.99;24.28;99929.53;6212752;23;20020;-71
2022/06/21 11:23:56;;;;;;;28.35;1.98;;;;;;;28.21;22.20;99930.38;6212511;23;20008;-72
2022/06/21 11:26:44;;;;;;;19.67;2.17;;;;;;;28.13;22.69;99950.13;6212982;23;20436;-71
2022/06/21 11:29:28;;;;;;;14.48;1.38;;;;;;;28.32;22.20;99932.97;6212873;23;20489;-71
2022/06/21 11:32:03;;;;;;;29.98;3.17;;;;;;;28.56;21.12;99929.94;6212458;23;20005;-71
2022/06/21 11:34:46;;;;;;;25.92;1.83;;;;;;;28.27;22.21;99940.34;6212820;23;20087;-71
2022/06/21 11:37:26;;;;;;;10.57;1.75;;;;;;;28.15;22.15;99934.97;6212868;23;20007;-71
2022/06/21 11:40:05;;;;;;;1.92;0.65;;;;;;;28.08;23.17;99933.53;6213148;23;20059;-71
2022/06/21 11:42:43;;;;;;;13.30;1.52;;;;;;;27.97;23.29;99917.94;6212868;23;20008;-71
2022/06/21 11:45:43;;;;;;;5.88;0.85;;;;;;;28.10;23.84;99923.06;6212732;23;20315;-72
2022/06/21 11:48:39;;;;;;;7.25;1.42;;;;;;;28.20;24.10;99929.53;6212657;23;20036;-71
2022/06/21 11:51:10;;;;;;;14.35;1.55;;;;;;;28.34;22.57;99928.03;6212513;23;20091;-71
2022/06/21 11:54:14;;;;;;;11.68;1.13;;;;;;;28.48;22.03;99931.25;6211916;23;20071;-71
2022/06/21 11:57:11;;;;;;;18.77;1.80;;;;;;;28.41;22.18;99934.16;6195948;23;20044;-71
2022/06/21 11:59:45;;;;;;;10.27;1.30;;;;;;;28.46;22.05;99939.78;6212421;23;20012;-71
2022/06/21 12:02:18;;;;;;;6.28;0.70;;;;;;;28.39;21.93;99941.88;6185736;23;20012;-71
2022/06/21 12:04:54;;;;;;;7.73;0.87;;;;;;;28.33;22.24;99925.50;6212362;23;20028;-71
2022/06/21 12:07:32;;;;;;;10.07;1.20;;;;;;;28.44;22.13;99939.19;6212378;23;20009;-71
2022/06/21 12:10:09;;;;;;;11.13;1.63;;;;;;;28.40;21.98;99932.50;6185174;23;20664;-71
2022/06/21 12:12:46;;;;;;;5.05;1.40;;;;;;;28.42;22.93;99932.25;6212104;23;20009;-71
2022/06/21 12:15:40;;;;;;;5.95;0.90;;;;;;;28.45;23.35;99920.72;6212347;23;20421;-71
2022/06/21 12:18:15;;;;;;;9.63;1.05;;;;;;;28.61;23.12;99925.31;6212263;23;20005;-71
2022/06/21 12:21:01;;;;;;;3.90;0.70;;;;;;;28.55;23.65;99926.34;6212195;23;20036;-71
2022/06/21 12:23:49;;;;;;;2.83;0.90;;;;;;;28.59;23.99;99924.72;6212220;23;20011;-71
2022/06/21 12:26:19;;;;;;;10.35;1.33;;;;;;;28.94;22.33;99919.53;6212035;23;20090;-72
2022/06/21 12:28:45;;;;;;;6.05;1.30;;;;;;;28.71;22.81;99900.56;6212117;23;20004;-71